Bloomingrose, West Virginia
Current Conditions -  °F | °C
As of 12:54 AM on Monday 26 Jan 2015 (Local Time) from KCRW Reporting Station
Light Rain Light Rain  
Wind Chill: 39°   Ceiling: 3200
Heat Index: 39°   Visibility: 4mi
Dew Point: 38°   Wind: 3mph
Humidity: 96%   Direction: 50°NE
Pressure: 29.66"   Gusts: NA
Location:  38.14°N, 81.63°W
Report Text: KCRW 260554Z 05003KT 4SM -RA BR FEW001 BKN032 OVC055 04/03 A2966 RMK AO2 SLP047 CIG RGD VLY FG P0001 60007 T00390033 10067 20039 58021
Loading
Personal Weather Stations






























Interactive Weather Map New forecast layout! Learn more

10-Day Weather Forecast

Advertisements
Track Severe Weather on mobile